sensor_id;sensor_type;location;lat;lon;timestamp;P1;durP1;ratioP1;P2;durP2;ratioP2
7289;SDS011;63176;52.678;13.250;2023-03-01T00:01:32;28.67;;;15.17;;
7289;SDS011;63176;52.678;13.250;2023-03-01T00:03:58;33.97;;;14.87;;
7289;SDS011;63176;52.678;13.250;2023-03-01T00:06:24;34.13;;;15.93;;
7289;SDS011;63176;52.678;13.250;2023-03-01T00:08:50;30.50;;;14.48;;
7289;SDS011;63176;52.678;13.250;2023-03-01T00:11:18;23.37;;;13.40;;
7289;SDS011;63176;52.678;13.250;2023-03-01T00:13:49;28.30;;;14.95;;
7289;SDS011;63176;52.678;13.250;2023-03-01T00:16:24;27.85;;;13.15;;
7289;SDS011;63176;52.678;13.250;2023-03-01T00:18:55;33.40;;;14.55;;
7289;SDS011;63176;52.678;13.250;2023-03-01T00:21:21;29.65;;;14.65;;
7289;SDS011;63176;52.678;13.250;2023-03-01T00:23:48;26.80;;;14.27;;
7289;SDS011;63176;52.678;13.250;2023-03-01T00:26:14;28.45;;;14.80;;
7289;SDS011;63176;52.678;13.250;2023-03-01T00:28:41;33.47;;;13.68;;
7289;SDS011;63176;52.678;13.250;2023-03-01T00:31:09;30.60;;;14.90;;
7289;SDS011;63176;52.678;13.250;2023-03-01T00:33:36;36.95;;;16.77;;
7289;SDS011;63176;52.678;13.250;2023-03-01T00:36:02;21.57;;;13.53;;
7289;SDS011;63176;52.678;13.250;2023-03-01T00:38:28;22.58;;;12.65;;
7289;SDS011;63176;52.678;13.250;2023-03-01T00:40:54;28.10;;;13.30;;
7289;SDS011;63176;52.678;13.250;2023-03-01T00:43:20;21.43;;;12.07;;
7289;SDS011;63176;52.678;13.250;2023-03-01T00:45:45;29.27;;;14.00;;
7289;SDS011;63176;52.678;13.250;2023-03-01T00:48:11;29.67;;;13.03;;
7289;SDS011;63176;52.678;13.250;2023-03-01T00:50:37;23.90;;;13.43;;
7289;SDS011;63176;52.678;13.250;2023-03-01T00:53:02;22.50;;;12.20;;
7289;SDS011;63176;52.678;13.250;2023-03-01T00:55:29;23.58;;;12.73;;
7289;SDS011;63176;52.678;13.250;2023-03-01T00:57:55;21.80;;;12.30;;
7289;SDS011;63176;52.678;13.250;2023-03-01T01:00:21;26.37;;;13.10;;
7289;SDS011;63176;52.678;13.250;2023-03-01T01:02:47;25.00;;;11.83;;
7289;SDS011;63176;52.678;13.250;2023-03-01T01:05:13;24.00;;;12.68;;
7289;SDS011;63176;52.678;13.250;2023-03-01T01:07:39;35.58;;;13.40;;
7289;SDS011;63176;52.678;13.250;2023-03-01T01:10:05;22.10;;;10.50;;
7289;SDS011;63176;52.678;13.250;2023-03-01T01:12:31;16.92;;;9.80;;
7289;SDS011;63176;52.678;13.250;2023-03-01T01:14:57;28.08;;;11.25;;
7289;SDS011;63176;52.678;13.250;2023-03-01T01:17:23;18.53;;;10.30;;
7289;SDS011;63176;52.678;13.250;2023-03-01T01:19:49;20.00;;;11.13;;
7289;SDS011;63176;52.678;13.250;2023-03-01T01:22:15;19.87;;;10.47;;
7289;SDS011;63176;52.678;13.250;2023-03-01T01:24:40;18.33;;;10.67;;
7289;SDS011;63176;52.678;13.250;2023-03-01T01:27:06;14.60;;;8.30;;
7289;SDS011;63176;52.678;13.250;2023-03-01T01:29:32;20.07;;;9.17;;
7289;SDS011;63176;52.678;13.250;2023-03-01T01:31:58;23.75;;;10.02;;
7289;SDS011;63176;52.678;13.250;2023-03-01T01:34:24;18.27;;;10.43;;
7289;SDS011;63176;52.678;13.250;2023-03-01T01:36:50;20.07;;;10.10;;
7289;SDS011;63176;52.678;13.250;2023-03-01T01:39:20;22.65;;;10.75;;
7289;SDS011;63176;52.678;13.250;2023-03-01T01:41:46;22.55;;;11.32;;
7289;SDS011;63176;52.678;13.250;2023-03-01T01:44:13;17.15;;;10.75;;
7289;SDS011;63176;52.678;13.250;2023-03-01T01:49:23;20.63;;;10.18;;
7289;SDS011;63176;52.678;13.250;2023-03-01T01:51:57;25.13;;;10.40;;
7289;SDS011;63176;52.678;13.250;2023-03-01T01:54:39;17.52;;;10.95;;
7289;SDS011;63176;52.678;13.250;2023-03-01T01:57:11;20.23;;;12.10;;
7289;SDS011;63176;52.678;13.250;2023-03-01T01:59:43;29.83;;;10.50;;
7289;SDS011;63176;52.678;13.250;2023-03-01T02:02:13;16.95;;;9.73;;
7289;SDS011;63176;52.678;13.250;2023-03-01T02:04:39;17.63;;;10.73;;
7289;SDS011;63176;52.678;13.250;2023-03-01T02:07:14;20.58;;;10.60;;
7289;SDS011;63176;52.678;13.250;2023-03-01T02:09:50;20.02;;;10.60;;
7289;SDS011;63176;52.678;13.250;2023-03-01T02:12:19;19.85;;;11.18;;
7289;SDS011;63176;52.678;13.250;2023-03-01T02:14:48;17.20;;;10.45;;
7289;SDS011;63176;52.678;13.250;2023-03-01T02:17:15;20.20;;;10.93;;
7289;SDS011;63176;52.678;13.250;2023-03-01T02:22:24;21.13;;;10.35;;
7289;SDS011;63176;52.678;13.250;2023-03-01T02:30:30;23.05;;;10.55;;
7289;SDS011;63176;52.678;13.250;2023-03-01T02:32:57;21.42;;;10.82;;
7289;SDS011;63176;52.678;13.250;2023-03-01T02:35:28;22.95;;;10.20;;
7289;SDS011;63176;52.678;13.250;2023-03-01T02:38:00;17.17;;;8.15;;
7289;SDS011;63176;52.678;13.250;2023-03-01T02:40:28;14.90;;;10.05;;
7289;SDS011;63176;52.678;13.250;2023-03-01T02:42:56;16.30;;;9.43;;
7289;SDS011;63176;52.678;13.250;2023-03-01T02:45:24;14.90;;;8.93;;
7289;SDS011;63176;52.678;13.250;2023-03-01T02:47:53;22.10;;;9.80;;
7289;SDS011;63176;52.678;13.250;2023-03-01T02:55:20;30.40;;;10.70;;
7289;SDS011;63176;52.678;13.250;2023-03-01T02:57:46;19.03;;;9.13;;
7289;SDS011;63176;52.678;13.250;2023-03-01T03:00:23;17.88;;;9.18;;
7289;SDS011;63176;52.678;13.250;2023-03-01T03:02:53;21.55;;;8.00;;
7289;SDS011;63176;52.678;13.250;2023-03-01T03:05:20;23.38;;;8.93;;
7289;SDS011;63176;52.678;13.250;2023-03-01T03:07:48;17.40;;;8.80;;
7289;SDS011;63176;52.678;13.250;2023-03-01T03:10:16;16.40;;;8.02;;
7289;SDS011;63176;52.678;13.250;2023-03-01T03:12:47;14.18;;;9.57;;
7289;SDS011;63176;52.678;13.250;2023-03-01T03:15:21;17.13;;;9.60;;
7289;SDS011;63176;52.678;13.250;2023-03-01T03:17:48;16.42;;;8.50;;
7289;SDS011;63176;52.678;13.250;2023-03-01T03:20:16;16.88;;;9.10;;
7289;SDS011;63176;52.678;13.250;2023-03-01T03:22:44;17.40;;;8.88;;
7289;SDS011;63176;52.678;13.250;2023-03-01T03:25:11;18.58;;;10.23;;
7289;SDS011;63176;52.678;13.250;2023-03-01T03:27:37;17.20;;;9.25;;
7289;SDS011;63176;52.678;13.250;2023-03-01T03:30:05;17.52;;;9.40;;
7289;SDS011;63176;52.678;13.250;2023-03-01T03:32:34;18.45;;;10.10;;
7289;SDS011;63176;52.678;13.250;2023-03-01T03:35:01;17.77;;;8.27;;
7289;SDS011;63176;52.678;13.250;2023-03-01T03:37:34;22.75;;;8.45;;
7289;SDS011;63176;52.678;13.250;2023-03-01T03:40:22;12.00;;;6.60;;
7289;SDS011;63176;52.678;13.250;2023-03-01T03:42:48;14.67;;;7.90;;
7289;SDS011;63176;52.678;13.250;2023-03-01T03:45:14;17.83;;;8.67;;
7289;SDS011;63176;52.678;13.250;2023-03-01T03:47:41;14.25;;;8.45;;
7289;SDS011;63176;52.678;13.250;2023-03-01T03:50:07;10.68;;;7.18;;
7289;SDS011;63176;52.678;13.250;2023-03-01T03:52:34;27.92;;;9.63;;
7289;SDS011;63176;52.678;13.250;2023-03-01T03:55:03;23.70;;;9.70;;
7289;SDS011;63176;52.678;13.250;2023-03-01T03:57:38;12.82;;;6.95;;
7289;SDS011;63176;52.678;13.250;2023-03-01T04:00:08;18.52;;;9.40;;
7289;SDS011;63176;52.678;13.250;2023-03-01T04:02:40;18.75;;;8.98;;
7289;SDS011;63176;52.678;13.250;2023-03-01T04:05:07;16.25;;;8.82;;
7289;SDS011;63176;52.678;13.250;2023-03-01T04:07:37;18.45;;;9.45;;
7289;SDS011;63176;52.678;13.250;2023-03-01T04:10:04;19.27;;;9.00;;
7289;SDS011;63176;52.678;13.250;2023-03-01T04:12:32;17.20;;;9.05;;
7289;SDS011;63176;52.678;13.250;2023-03-01T04:14:59;19.88;;;9.48;;
7289;SDS011;63176;52.678;13.250;2023-03-01T04:17:25;14.27;;;7.55;;
7289;SDS011;63176;52.678;13.250;2023-03-01T04:19:51;16.65;;;9.05;;
7289;SDS011;63176;52.678;13.250;2023-03-01T04:22:18;17.15;;;9.55;;
7289;SDS011;63176;52.678;13.250;2023-03-01T04:24:44;16.10;;;9.07;;
7289;SDS011;63176;52.678;13.250;2023-03-01T04:27:10;15.70;;;8.35;;
7289;SDS011;63176;52.678;13.250;2023-03-01T04:29:36;13.85;;;6.50;;
7289;SDS011;63176;52.678;13.250;2023-03-01T04:32:02;14.30;;;7.73;;
7289;SDS011;63176;52.678;13.250;2023-03-01T04:34:28;16.58;;;8.65;;
7289;SDS011;63176;52.678;13.250;2023-03-01T04:36:54;15.95;;;8.30;;
7289;SDS011;63176;52.678;13.250;2023-03-01T04:39:20;15.47;;;7.13;;
7289;SDS011;63176;52.678;13.250;2023-03-01T04:41:46;11.70;;;7.30;;
7289;SDS011;63176;52.678;13.250;2023-03-01T04:44:12;17.90;;;8.23;;
7289;SDS011;63176;52.678;13.250;2023-03-01T04:46:38;15.50;;;9.50;;
7289;SDS011;63176;52.678;13.250;2023-03-01T04:49:04;20.98;;;8.43;;
7289;SDS011;63176;52.678;13.250;2023-03-01T04:51:30;19.37;;;9.00;;
7289;SDS011;63176;52.678;13.250;2023-03-01T04:53:57;25.75;;;8.85;;
7289;SDS011;63176;52.678;13.250;2023-03-01T04:56:23;13.05;;;8.13;;
7289;SDS011;63176;52.678;13.250;2023-03-01T04:58:49;17.40;;;9.77;;
7289;SDS011;63176;52.678;13.250;2023-03-01T05:01:18;12.65;;;7.43;;
7289;SDS011;63176;52.678;13.250;2023-03-01T05:03:49;19.95;;;7.85;;
7289;SDS011;63176;52.678;13.250;2023-03-01T05:06:16;16.67;;;8.10;;
7289;SDS011;63176;52.678;13.250;2023-03-01T05:08:42;13.32;;;7.97;;
7289;SDS011;63176;52.678;13.250;2023-03-01T05:11:09;18.52;;;8.25;;
7289;SDS011;63176;52.678;13.250;2023-03-01T05:13:36;14.77;;;7.80;;
7289;SDS011;63176;52.678;13.250;2023-03-01T05:16:03;12.82;;;8.65;;
7289;SDS011;63176;52.678;13.250;2023-03-01T05:18:31;18.35;;;8.60;;
7289;SDS011;63176;52.678;13.250;2023-03-01T05:21:04;11.45;;;6.15;;
7289;SDS011;63176;52.678;13.250;2023-03-01T05:23:32;14.13;;;7.75;;
7289;SDS011;63176;52.678;13.250;2023-03-01T05:25:58;13.45;;;7.35;;
7289;SDS011;63176;52.678;13.250;2023-03-01T05:28:25;15.20;;;8.50;;
7289;SDS011;63176;52.678;13.250;2023-03-01T05:30:51;16.88;;;8.48;;
7289;SDS011;63176;52.678;13.250;2023-03-01T05:33:17;10.67;;;6.40;;
7289;SDS011;63176;52.678;13.250;2023-03-01T05:35:44;13.35;;;7.15;;
7289;SDS011;63176;52.678;13.250;2023-03-01T05:38:10;12.52;;;6.82;;
7289;SDS011;63176;52.678;13.250;2023-03-01T05:40:38;13.07;;;7.22;;
7289;SDS011;63176;52.678;13.250;2023-03-01T05:43:05;16.27;;;8.82;;
7289;SDS011;63176;52.678;13.250;2023-03-01T05:45:31;14.82;;;8.45;;
7289;SDS011;63176;52.678;13.250;2023-03-01T05:48:00;13.13;;;6.90;;
7289;SDS011;63176;52.678;13.250;2023-03-01T05:50:26;12.63;;;7.20;;
7289;SDS011;63176;52.678;13.250;2023-03-01T05:55:27;15.43;;;7.18;;
7289;SDS011;63176;52.678;13.250;2023-03-01T05:57:55;14.52;;;7.25;;
7289;SDS011;63176;52.678;13.250;2023-03-01T06:00:22;13.00;;;7.28;;
7289;SDS011;63176;52.678;13.250;2023-03-01T06:02:48;17.43;;;6.60;;
7289;SDS011;63176;52.678;13.250;2023-03-01T06:05:15;12.95;;;7.25;;
7289;SDS011;63176;52.678;13.250;2023-03-01T06:07:41;15.17;;;7.60;;
7289;SDS011;63176;52.678;13.250;2023-03-01T06:10:07;11.73;;;7.22;;
7289;SDS011;63176;52.678;13.250;2023-03-01T06:12:34;13.38;;;8.18;;
7289;SDS011;63176;52.678;13.250;2023-03-01T06:15:01;14.48;;;7.40;;
7289;SDS011;63176;52.678;13.250;2023-03-01T06:17:29;12.60;;;6.78;;
7289;SDS011;63176;52.678;13.250;2023-03-01T06:19:55;17.65;;;7.50;;
7289;SDS011;63176;52.678;13.250;2023-03-01T06:22:21;12.30;;;6.90;;
7289;SDS011;63176;52.678;13.250;2023-03-01T06:24:47;8.93;;;6.30;;
7289;SDS011;63176;52.678;13.250;2023-03-01T06:27:12;10.90;;;6.10;;
7289;SDS011;63176;52.678;13.250;2023-03-01T06:29:38;13.07;;;6.97;;
7289;SDS011;63176;52.678;13.250;2023-03-01T06:32:04;10.00;;;6.53;;
7289;SDS011;63176;52.678;13.250;2023-03-01T06:34:30;11.90;;;6.97;;
7289;SDS011;63176;52.678;13.250;2023-03-01T06:36:56;8.82;;;5.63;;
7289;SDS011;63176;52.678;13.250;2023-03-01T06:39:22;18.93;;;8.10;;
7289;SDS011;63176;52.678;13.250;2023-03-01T06:41:47;15.10;;;7.47;;
7289;SDS011;63176;52.678;13.250;2023-03-01T06:44:13;12.20;;;6.20;;
7289;SDS011;63176;52.678;13.250;2023-03-01T06:46:39;16.43;;;7.33;;
7289;SDS011;63176;52.678;13.250;2023-03-01T06:49:05;15.35;;;8.05;;
7289;SDS011;63176;52.678;13.250;2023-03-01T06:51:34;17.08;;;8.13;;
7289;SDS011;63176;52.678;13.250;2023-03-01T06:54:02;12.25;;;6.13;;
7289;SDS011;63176;52.678;13.250;2023-03-01T06:56:29;13.50;;;9.27;;
7289;SDS011;63176;52.678;13.250;2023-03-01T06:58:55;18.15;;;8.73;;
7289;SDS011;63176;52.678;13.250;2023-03-01T07:01:20;15.73;;;8.07;;
7289;SDS011;63176;52.678;13.250;2023-03-01T07:03:46;20.57;;;10.00;;
7289;SDS011;63176;52.678;13.250;2023-03-01T07:06:11;17.17;;;8.23;;
7289;SDS011;63176;52.678;13.250;2023-03-01T07:08:37;13.87;;;8.60;;
7289;SDS011;63176;52.678;13.250;2023-03-01T07:11:03;14.60;;;9.63;;
7289;SDS011;63176;52.678;13.250;2023-03-01T07:13:29;15.87;;;9.10;;
7289;SDS011;63176;52.678;13.250;2023-03-01T07:15:55;11.50;;;8.00;;
7289;SDS011;63176;52.678;13.250;2023-03-01T07:18:20;16.00;;;8.20;;
7289;SDS011;63176;52.678;13.250;2023-03-01T07:20:49;11.50;;;6.33;;
7289;SDS011;63176;52.678;13.250;2023-03-01T07:23:15;15.80;;;7.90;;
7289;SDS011;63176;52.678;13.250;2023-03-01T07:25:41;23.30;;;12.73;;
7289;SDS011;63176;52.678;13.250;2023-03-01T07:28:06;21.10;;;12.67;;
7289;SDS011;63176;52.678;13.250;2023-03-01T07:30:32;18.83;;;10.90;;
7289;SDS011;63176;52.678;13.250;2023-03-01T07:32:58;17.70;;;10.07;;
7289;SDS011;63176;52.678;13.250;2023-03-01T07:35:27;11.02;;;7.80;;
7289;SDS011;63176;52.678;13.250;2023-03-01T07:37:53;17.90;;;8.93;;
7289;SDS011;63176;52.678;13.250;2023-03-01T07:40:19;14.60;;;9.13;;
7289;SDS011;63176;52.678;13.250;2023-03-01T07:42:45;13.23;;;8.07;;
7289;SDS011;63176;52.678;13.250;2023-03-01T07:45:11;16.70;;;8.80;;
7289;SDS011;63176;52.678;13.250;2023-03-01T07:47:38;21.15;;;9.15;;
7289;SDS011;63176;52.678;13.250;2023-03-01T07:50:04;10.83;;;7.20;;
7289;SDS011;63176;52.678;13.250;2023-03-01T07:52:30;15.05;;;7.97;;
7289;SDS011;63176;52.678;13.250;2023-03-01T07:54:56;14.10;;;7.60;;
7289;SDS011;63176;52.678;13.250;2023-03-01T07:57:22;12.65;;;8.05;;
7289;SDS011;63176;52.678;13.250;2023-03-01T07:59:48;11.00;;;7.35;;
7289;SDS011;63176;52.678;13.250;2023-03-01T08:02:14;12.20;;;7.67;;
7289;SDS011;63176;52.678;13.250;2023-03-01T08:04:40;16.70;;;8.13;;
7289;SDS011;63176;52.678;13.250;2023-03-01T08:07:07;13.23;;;7.80;;
7289;SDS011;63176;52.678;13.250;2023-03-01T08:09:34;13.83;;;8.10;;
7289;SDS011;63176;52.678;13.250;2023-03-01T08:12:01;11.95;;;7.25;;
7289;SDS011;63176;52.678;13.250;2023-03-01T08:14:29;11.68;;;7.78;;
7289;SDS011;63176;52.678;13.250;2023-03-01T08:16:55;12.35;;;7.38;;
7289;SDS011;63176;52.678;13.250;2023-03-01T08:19:21;15.50;;;7.30;;
7289;SDS011;63176;52.678;13.250;2023-03-01T08:21:47;13.40;;;7.63;;
7289;SDS011;63176;52.678;13.250;2023-03-01T08:24:12;11.77;;;6.93;;
7289;SDS011;63176;52.678;13.250;2023-03-01T08:26:38;12.57;;;6.70;;
7289;SDS011;63176;52.678;13.250;2023-03-01T08:29:04;8.40;;;5.13;;
7289;SDS011;63176;52.678;13.250;2023-03-01T08:31:34;8.33;;;5.00;;
7289;SDS011;63176;52.678;13.250;2023-03-01T08:34:03;9.13;;;4.90;;
7289;SDS011;63176;52.678;13.250;2023-03-01T08:36:37;8.20;;;4.57;;
7289;SDS011;63176;52.678;13.250;2023-03-01T08:39:05;11.50;;;6.10;;
7289;SDS011;63176;52.678;13.250;2023-03-01T08:41:32;13.45;;;5.35;;
7289;SDS011;63176;52.678;13.250;2023-03-01T08:43:57;10.93;;;5.07;;
7289;SDS011;63176;52.678;13.250;2023-03-01T08:46:42;6.20;;;4.37;;
7289;SDS011;63176;52.678;13.250;2023-03-01T08:49:14;8.15;;;4.38;;
7289;SDS011;63176;52.678;13.250;2023-03-01T08:51:41;8.32;;;4.03;;
7289;SDS011;63176;52.678;13.250;2023-03-01T08:54:12;6.75;;;3.95;;
7289;SDS011;63176;52.678;13.250;2023-03-01T08:56:40;5.13;;;3.58;;
7289;SDS011;63176;52.678;13.250;2023-03-01T08:59:05;7.87;;;3.77;;
7289;SDS011;63176;52.678;13.250;2023-03-01T09:01:32;6.63;;;4.40;;
7289;SDS011;63176;52.678;13.250;2023-03-01T09:03:57;6.80;;;4.20;;
7289;SDS011;63176;52.678;13.250;2023-03-01T09:06:23;6.53;;;3.50;;
7289;SDS011;63176;52.678;13.250;2023-03-01T09:08:49;3.80;;;2.60;;
7289;SDS011;63176;52.678;13.250;2023-03-01T09:11:19;8.15;;;3.00;;
7289;SDS011;63176;52.678;13.250;2023-03-01T09:13:46;3.33;;;2.20;;
7289;SDS011;63176;52.678;13.250;2023-03-01T09:16:13;2.60;;;2.35;;
7289;SDS011;63176;52.678;13.250;2023-03-01T09:18:40;5.68;;;1.65;;
7289;SDS011;63176;52.678;13.250;2023-03-01T09:21:07;3.17;;;2.27;;
7289;SDS011;63176;52.678;13.250;2023-03-01T09:23:35;3.17;;;1.83;;
7289;SDS011;63176;52.678;13.250;2023-03-01T09:26:03;2.95;;;2.15;;
7289;SDS011;63176;52.678;13.250;2023-03-01T09:28:30;5.75;;;2.78;;
7289;SDS011;63176;52.678;13.250;2023-03-01T09:30:59;4.55;;;2.05;;
7289;SDS011;63176;52.678;13.250;2023-03-01T09:33:26;2.88;;;1.52;;
7289;SDS011;63176;52.678;13.250;2023-03-01T09:35:57;6.40;;;3.03;;
7289;SDS011;63176;52.678;13.250;2023-03-01T09:38:23;32.95;;;10.07;;
7289;SDS011;63176;52.678;13.250;2023-03-01T09:40:49;10.80;;;4.40;;
7289;SDS011;63176;52.678;13.250;2023-03-01T09:45:46;6.80;;;2.35;;
7289;SDS011;63176;52.678;13.250;2023-03-01T09:48:18;11.73;;;3.40;;
7289;SDS011;63176;52.678;13.250;2023-03-01T09:50:49;4.20;;;2.35;;
7289;SDS011;63176;52.678;13.250;2023-03-01T09:53:18;3.95;;;2.70;;
7289;SDS011;63176;52.678;13.250;2023-03-01T09:55:58;20.55;;;6.88;;
7289;SDS011;63176;52.678;13.250;2023-03-01T10:01:21;6.63;;;2.10;;
7289;SDS011;63176;52.678;13.250;2023-03-01T10:06:36;3.25;;;1.40;;
7289;SDS011;63176;52.678;13.250;2023-03-01T10:09:10;4.20;;;2.38;;
7289;SDS011;63176;52.678;13.250;2023-03-01T10:11:45;3.88;;;2.10;;
7289;SDS011;63176;52.678;13.250;2023-03-01T10:20:17;9.90;;;2.10;;
7289;SDS011;63176;52.678;13.250;2023-03-01T10:22:44;3.42;;;1.90;;
7289;SDS011;63176;52.678;13.250;2023-03-01T10:25:16;4.40;;;2.40;;
7289;SDS011;63176;52.678;13.250;2023-03-01T10:28:10;4.00;;;2.95;;
7289;SDS011;63176;52.678;13.250;2023-03-01T10:30:50;4.47;;;2.60;;
7289;SDS011;63176;52.678;13.250;2023-03-01T10:33:17;3.57;;;2.30;;
7289;SDS011;63176;52.678;13.250;2023-03-01T10:35:48;3.43;;;2.03;;
7289;SDS011;63176;52.678;13.250;2023-03-01T10:38:14;3.07;;;2.00;;
7289;SDS011;63176;52.678;13.250;2023-03-01T10:43:27;4.00;;;2.60;;
7289;SDS011;63176;52.678;13.250;2023-03-01T10:46:30;2.60;;;2.00;;
7289;SDS011;63176;52.678;13.250;2023-03-01T10:49:12;3.90;;;1.77;;
7289;SDS011;63176;52.678;13.250;2023-03-01T10:51:42;2.27;;;1.70;;
7289;SDS011;63176;52.678;13.250;2023-03-01T10:56:48;4.33;;;1.77;;
7289;SDS011;63176;52.678;13.250;2023-03-01T10:59:24;4.13;;;2.10;;
7289;SDS011;63176;52.678;13.250;2023-03-01T11:05:31;3.13;;;1.73;;
7289;SDS011;63176;52.678;13.250;2023-03-01T11:08:15;3.90;;;1.90;;
7289;SDS011;63176;52.678;13.250;2023-03-01T11:10:35;2.63;;;1.80;;
7289;SDS011;63176;52.678;13.250;2023-03-01T11:13:15;2.60;;;1.80;;
7289;SDS011;63176;52.678;13.250;2023-03-01T11:16:00;5.23;;;2.00;;
7289;SDS011;63176;52.678;13.250;2023-03-01T11:18:29;3.70;;;1.70;;
7289;SDS011;63176;52.678;13.250;2023-03-01T11:20:55;1.73;;;1.50;;
7289;SDS011;63176;52.678;13.250;2023-03-01T11:23:28;1.57;;;1.47;;
7289;SDS011;63176;52.678;13.250;2023-03-01T11:25:55;1.90;;;1.53;;
7289;SDS011;63176;52.678;13.250;2023-03-01T11:28:24;4.07;;;1.40;;
7289;SDS011;63176;52.678;13.250;2023-03-01T11:31:08;1.20;;;1.03;;
7289;SDS011;63176;52.678;13.250;2023-03-01T11:36:44;2.70;;;1.73;;
7289;SDS011;63176;52.678;13.250;2023-03-01T11:39:36;2.60;;;1.77;;
7289;SDS011;63176;52.678;13.250;2023-03-01T11:42:11;3.90;;;1.60;;
7289;SDS011;63176;52.678;13.250;2023-03-01T11:44:40;2.30;;;1.60;;
7289;SDS011;63176;52.678;13.250;2023-03-01T11:47:17;1.37;;;1.27;;
7289;SDS011;63176;52.678;13.250;2023-03-01T11:50:12;1.87;;;1.33;;
7289;SDS011;63176;52.678;13.250;2023-03-01T11:52:59;2.20;;;1.63;;
7289;SDS011;63176;52.678;13.250;2023-03-01T11:55:43;2.58;;;1.33;;
7289;SDS011;63176;52.678;13.250;2023-03-01T12:04:18;4.10;;;1.98;;
7289;SDS011;63176;52.678;13.250;2023-03-01T12:07:00;3.40;;;1.98;;
7289;SDS011;63176;52.678;13.250;2023-03-01T12:09:34;6.05;;;1.95;;
7289;SDS011;63176;52.678;13.250;2023-03-01T12:25:44;3.13;;;1.85;;
7289;SDS011;63176;52.678;13.250;2023-03-01T12:28:27;2.42;;;1.70;;
7289;SDS011;63176;52.678;13.250;2023-03-01T12:39:56;3.50;;;1.80;;
7289;SDS011;63176;52.678;13.250;2023-03-01T12:50:17;2.72;;;1.17;;
7289;SDS011;63176;52.678;13.250;2023-03-01T12:52:56;1.38;;;1.27;;
7289;SDS011;63176;52.678;13.250;2023-03-01T12:55:29;1.20;;;1.10;;
7289;SDS011;63176;52.678;13.250;2023-03-01T13:03:36;2.45;;;1.30;;
7289;SDS011;63176;52.678;13.250;2023-03-01T13:06:25;1.23;;;1.05;;
7289;SDS011;63176;52.678;13.250;2023-03-01T13:09:23;1.23;;;1.00;;
7289;SDS011;63176;52.678;13.250;2023-03-01T13:15:42;1.70;;;1.40;;
7289;SDS011;63176;52.678;13.250;2023-03-01T13:20:33;2.20;;;0.88;;
7289;SDS011;63176;52.678;13.250;2023-03-01T13:28:45;1.88;;;1.23;;
7289;SDS011;63176;52.678;13.250;2023-03-01T13:41:54;3.20;;;1.00;;
7289;SDS011;63176;52.678;13.250;2023-03-01T13:49:50;1.10;;;1.00;;
7289;SDS011;63176;52.678;13.250;2023-03-01T13:52:40;1.02;;;0.77;;
7289;SDS011;63176;52.678;13.250;2023-03-01T13:55:21;2.75;;;1.30;;
7289;SDS011;63176;52.678;13.250;2023-03-01T13:57:51;0.85;;;0.70;;
7289;SDS011;63176;52.678;13.250;2023-03-01T14:00:34;3.28;;;1.20;;
7289;SDS011;63176;52.678;13.250;2023-03-01T14:05:36;1.33;;;1.00;;
7289;SDS011;63176;52.678;13.250;2023-03-01T14:08:03;1.42;;;1.05;;
7289;SDS011;63176;52.678;13.250;2023-03-01T14:16:33;2.33;;;1.00;;
7289;SDS011;63176;52.678;13.250;2023-03-01T14:19:24;3.15;;;1.02;;
7289;SDS011;63176;52.678;13.250;2023-03-01T14:22:04;0.75;;;0.75;;
7289;SDS011;63176;52.678;13.250;2023-03-01T14:24:49;2.78;;;1.77;;
7289;SDS011;63176;52.678;13.250;2023-03-01T14:27:17;1.52;;;1.08;;
7289;SDS011;63176;52.678;13.250;2023-03-01T14:29:43;7.15;;;1.80;;
7289;SDS011;63176;52.678;13.250;2023-03-01T14:32:20;1.48;;;1.33;;
7289;SDS011;63176;52.678;13.250;2023-03-01T14:34:48;1.92;;;1.05;;
7289;SDS011;63176;52.678;13.250;2023-03-01T14:39:49;1.33;;;1.20;;
7289;SDS011;63176;52.678;13.250;2023-03-01T14:42:16;1.90;;;1.20;;
7289;SDS011;63176;52.678;13.250;2023-03-01T14:44:43;2.50;;;1.30;;
7289;SDS011;63176;52.678;13.250;2023-03-01T14:47:13;1.05;;;0.95;;
7289;SDS011;63176;52.678;13.250;2023-03-01T14:49:42;1.90;;;1.13;;
7289;SDS011;63176;52.678;13.250;2023-03-01T14:52:20;2.60;;;1.52;;
7289;SDS011;63176;52.678;13.250;2023-03-01T14:54:48;1.88;;;1.10;;
7289;SDS011;63176;52.678;13.250;2023-03-01T14:57:20;1.20;;;1.10;;
7289;SDS011;63176;52.678;13.250;2023-03-01T14:59:54;1.20;;;1.10;;
7289;SDS011;63176;52.678;13.250;2023-03-01T15:02:24;1.25;;;1.00;;
7289;SDS011;63176;52.678;13.250;2023-03-01T15:04:54;1.30;;;0.90;;
7289;SDS011;63176;52.678;13.250;2023-03-01T15:07:26;1.67;;;1.17;;
7289;SDS011;63176;52.678;13.250;2023-03-01T15:09:55;1.40;;;1.10;;
7289;SDS011;63176;52.678;13.250;2023-03-01T15:14:53;1.65;;;1.00;;
7289;SDS011;63176;52.678;13.250;2023-03-01T15:19:48;1.40;;;0.98;;
7289;SDS011;63176;52.678;13.250;2023-03-01T15:22:15;2.13;;;1.33;;
7289;SDS011;63176;52.678;13.250;2023-03-01T15:24:41;1.10;;;0.70;;
7289;SDS011;63176;52.678;13.250;2023-03-01T15:27:14;6.13;;;1.15;;
7289;SDS011;63176;52.678;13.250;2023-03-01T15:29:47;1.65;;;1.20;;
7289;SDS011;63176;52.678;13.250;2023-03-01T15:32:31;1.92;;;1.10;;
7289;SDS011;63176;52.678;13.250;2023-03-01T15:34:59;2.90;;;1.35;;
7289;SDS011;63176;52.678;13.250;2023-03-01T15:37:40;1.70;;;1.35;;
7289;SDS011;63176;52.678;13.250;2023-03-01T15:40:24;1.48;;;1.13;;
7289;SDS011;63176;52.678;13.250;2023-03-01T15:42:56;1.38;;;0.93;;
7289;SDS011;63176;52.678;13.250;2023-03-01T15:45:24;1.17;;;1.08;;
7289;SDS011;63176;52.678;13.250;2023-03-01T15:47:53;4.63;;;0.90;;
7289;SDS011;63176;52.678;13.250;2023-03-01T15:50:35;3.03;;;1.55;;
7289;SDS011;63176;52.678;13.250;2023-03-01T15:53:06;2.30;;;1.10;;
7289;SDS011;63176;52.678;13.250;2023-03-01T15:55:37;2.20;;;1.13;;
7289;SDS011;63176;52.678;13.250;2023-03-01T15:58:09;2.15;;;1.35;;
7289;SDS011;63176;52.678;13.250;2023-03-01T16:00:40;1.42;;;1.25;;
7289;SDS011;63176;52.678;13.250;2023-03-01T16:03:08;1.45;;;1.10;;
7289;SDS011;63176;52.678;13.250;2023-03-01T16:05:37;1.83;;;1.23;;
7289;SDS011;63176;52.678;13.250;2023-03-01T16:08:04;1.90;;;1.20;;
7289;SDS011;63176;52.678;13.250;2023-03-01T16:10:31;3.70;;;1.50;;
7289;SDS011;63176;52.678;13.250;2023-03-01T16:12:57;1.48;;;1.20;;
7289;SDS011;63176;52.678;13.250;2023-03-01T16:15:27;2.20;;;1.00;;
7289;SDS011;63176;52.678;13.250;2023-03-01T16:17:55;1.63;;;1.30;;
7289;SDS011;63176;52.678;13.250;2023-03-01T16:20:23;1.60;;;1.02;;
7289;SDS011;63176;52.678;13.250;2023-03-01T16:22:50;2.58;;;1.40;;
7289;SDS011;63176;52.678;13.250;2023-03-01T16:25:17;3.05;;;1.00;;
7289;SDS011;63176;52.678;13.250;2023-03-01T16:27:45;2.33;;;1.00;;
7289;SDS011;63176;52.678;13.250;2023-03-01T16:30:12;2.45;;;1.40;;
7289;SDS011;63176;52.678;13.250;2023-03-01T16:32:39;2.05;;;1.77;;
7289;SDS011;63176;52.678;13.250;2023-03-01T16:35:06;7.07;;;3.30;;
7289;SDS011;63176;52.678;13.250;2023-03-01T16:37:34;8.95;;;4.65;;
7289;SDS011;63176;52.678;13.250;2023-03-01T16:40:01;7.50;;;3.40;;
7289;SDS011;63176;52.678;13.250;2023-03-01T16:42:32;6.22;;;3.20;;
7289;SDS011;63176;52.678;13.250;2023-03-01T16:45:01;8.07;;;3.15;;
7289;SDS011;63176;52.678;13.250;2023-03-01T16:47:28;4.20;;;2.90;;
7289;SDS011;63176;52.678;13.250;2023-03-01T16:49:54;2.10;;;1.90;;
7289;SDS011;63176;52.678;13.250;2023-03-01T16:52:20;1.93;;;1.73;;
7289;SDS011;63176;52.678;13.250;2023-03-01T16:54:47;1.40;;;1.30;;
7289;SDS011;63176;52.678;13.250;2023-03-01T16:57:13;6.53;;;1.90;;
7289;SDS011;63176;52.678;13.250;2023-03-01T16:59:39;9.48;;;1.67;;
7289;SDS011;63176;52.678;13.250;2023-03-01T17:02:05;3.10;;;1.58;;